sensor_id;sensor_type;location;lat;lon;timestamp;temperature;humidity
20714;DHT22;10518;50.742;4.226;2023-04-01T00:00:50;11.20;99.90
20714;DHT22;10518;50.742;4.226;2023-04-01T00:03:17;11.40;99.90
20714;DHT22;10518;50.742;4.226;2023-04-01T00:05:43;11.30;99.90
20714;DHT22;10518;50.742;4.226;2023-04-01T00:08:08;11.10;99.90
20714;DHT22;10518;50.742;4.226;2023-04-01T00:10:34;11.00;99.90
20714;DHT22;10518;50.742;4.226;2023-04-01T00:12:59;11.10;99.90
20714;DHT22;10518;50.742;4.226;2023-04-01T00:15:25;11.20;99.90
20714;DHT22;10518;50.742;4.226;2023-04-01T00:17:51;11.10;99.90
20714;DHT22;10518;50.742;4.226;2023-04-01T00:20:17;10.90;99.90
20714;DHT22;10518;50.742;4.226;2023-04-01T00:22:42;11.10;99.90
20714;DHT22;10518;50.742;4.226;2023-04-01T00:25:08;11.10;99.90
20714;DHT22;10518;50.742;4.226;2023-04-01T00:27:34;11.10;99.90
20714;DHT22;10518;50.742;4.226;2023-04-01T00:30:00;11.30;99.90
20714;DHT22;10518;50.742;4.226;2023-04-01T00:32:26;11.30;99.90
20714;DHT22;10518;50.742;4.226;2023-04-01T00:34:52;11.30;99.90
20714;DHT22;10518;50.742;4.226;2023-04-01T00:37:19;11.10;99.90
20714;DHT22;10518;50.742;4.226;2023-04-01T00:39:44;11.30;99.90
20714;DHT22;10518;50.742;4.226;2023-04-01T00:42:11;11.30;99.90
20714;DHT22;10518;50.742;4.226;2023-04-01T00:44:38;11.40;99.90
20714;DHT22;10518;50.742;4.226;2023-04-01T00:47:04;11.40;99.90
20714;DHT22;10518;50.742;4.226;2023-04-01T00:49:42;11.30;99.90
20714;DHT22;10518;50.742;4.226;2023-04-01T00:52:11;11.40;99.90
20714;DHT22;10518;50.742;4.226;2023-04-01T00:54:38;11.50;99.90
20714;DHT22;10518;50.742;4.226;2023-04-01T00:57:12;11.50;99.90
20714;DHT22;10518;50.742;4.226;2023-04-01T00:59:42;11.50;99.90
20714;DHT22;10518;50.742;4.226;2023-04-01T01:02:10;11.60;99.90
20714;DHT22;10518;50.742;4.226;2023-04-01T01:04:36;11.60;99.90
20714;DHT22;10518;50.742;4.226;2023-04-01T01:12:29;11.40;99.90
20714;DHT22;10518;50.742;4.226;2023-04-01T01:15:49;11.50;99.90
20714;DHT22;10518;50.742;4.226;2023-04-01T01:27:32;11.50;99.90
20714;DHT22;10518;50.742;4.226;2023-04-01T01:38:05;11.30;99.90
20714;DHT22;10518;50.742;4.226;2023-04-01T01:40:33;11.30;99.90
20714;DHT22;10518;50.742;4.226;2023-04-01T01:43:04;11.40;99.90
20714;DHT22;10518;50.742;4.226;2023-04-01T01:45:33;11.40;99.90
20714;DHT22;10518;50.742;4.226;2023-04-01T01:48:02;11.40;99.90
20714;DHT22;10518;50.742;4.226;2023-04-01T01:50:29;11.30;99.90
20714;DHT22;10518;50.742;4.226;2023-04-01T01:53:10;11.30;99.90
20714;DHT22;10518;50.742;4.226;2023-04-01T01:55:38;11.30;99.90
20714;DHT22;10518;50.742;4.226;2023-04-01T01:58:17;11.50;99.90
20714;DHT22;10518;50.742;4.226;2023-04-01T02:00:49;11.40;99.90
20714;DHT22;10518;50.742;4.226;2023-04-01T02:03:17;11.40;99.90
20714;DHT22;10518;50.742;4.226;2023-04-01T02:05:45;11.50;99.90
20714;DHT22;10518;50.742;4.226;2023-04-01T02:08:16;11.50;99.90
20714;DHT22;10518;50.742;4.226;2023-04-01T02:10:51;11.50;99.90
20714;DHT22;10518;50.742;4.226;2023-04-01T02:13:26;11.40;99.90
20714;DHT22;10518;50.742;4.226;2023-04-01T02:15:55;11.40;99.90
20714;DHT22;10518;50.742;4.226;2023-04-01T02:18:22;11.40;99.90
20714;DHT22;10518;50.742;4.226;2023-04-01T02:20:48;11.40;99.90
20714;DHT22;10518;50.742;4.226;2023-04-01T02:23:14;11.40;99.90
20714;DHT22;10518;50.742;4.226;2023-04-01T02:25:41;11.50;99.90
20714;DHT22;10518;50.742;4.226;2023-04-01T02:28:09;11.60;99.90
20714;DHT22;10518;50.742;4.226;2023-04-01T02:30:37;11.40;99.90
20714;DHT22;10518;50.742;4.226;2023-04-01T02:33:06;11.20;99.90
20714;DHT22;10518;50.742;4.226;2023-04-01T02:35:34;11.20;99.90
20714;DHT22;10518;50.742;4.226;2023-04-01T02:38:01;11.10;99.90
20714;DHT22;10518;50.742;4.226;2023-04-01T02:40:27;11.10;99.90
20714;DHT22;10518;50.742;4.226;2023-04-01T02:42:52;11.20;99.90
20714;DHT22;10518;50.742;4.226;2023-04-01T02:45:18;11.20;99.90
20714;DHT22;10518;50.742;4.226;2023-04-01T02:47:44;11.10;99.90
20714;DHT22;10518;50.742;4.226;2023-04-01T02:50:09;11.10;99.90
20714;DHT22;10518;50.742;4.226;2023-04-01T02:52:35;11.10;99.90
20714;DHT22;10518;50.742;4.226;2023-04-01T02:55:01;11.20;99.90
20714;DHT22;10518;50.742;4.226;2023-04-01T02:57:27;11.30;99.90
20714;DHT22;10518;50.742;4.226;2023-04-01T02:59:53;11.30;99.90
20714;DHT22;10518;50.742;4.226;2023-04-01T03:02:19;11.30;99.90
20714;DHT22;10518;50.742;4.226;2023-04-01T03:04:44;11.20;99.90
20714;DHT22;10518;50.742;4.226;2023-04-01T03:07:11;11.20;99.90
20714;DHT22;10518;50.742;4.226;2023-04-01T03:09:37;11.30;99.90
20714;DHT22;10518;50.742;4.226;2023-04-01T03:12:03;11.10;99.90
20714;DHT22;10518;50.742;4.226;2023-04-01T03:14:29;10.90;99.90
20714;DHT22;10518;50.742;4.226;2023-04-01T03:16:55;11.00;99.90
20714;DHT22;10518;50.742;4.226;2023-04-01T03:19:20;11.00;99.90
20714;DHT22;10518;50.742;4.226;2023-04-01T03:21:46;11.00;99.90
20714;DHT22;10518;50.742;4.226;2023-04-01T03:24:12;11.10;99.90
20714;DHT22;10518;50.742;4.226;2023-04-01T03:26:37;10.90;99.90
20714;DHT22;10518;50.742;4.226;2023-04-01T03:29:03;11.00;99.90
20714;DHT22;10518;50.742;4.226;2023-04-01T03:31:28;10.90;99.90
20714;DHT22;10518;50.742;4.226;2023-04-01T03:33:54;10.90;99.90
20714;DHT22;10518;50.742;4.226;2023-04-01T03:36:20;10.90;99.90
20714;DHT22;10518;50.742;4.226;2023-04-01T03:38:46;11.00;99.90
20714;DHT22;10518;50.742;4.226;2023-04-01T03:41:13;11.10;99.90
20714;DHT22;10518;50.742;4.226;2023-04-01T03:43:38;11.00;99.90
20714;DHT22;10518;50.742;4.226;2023-04-01T03:46:04;11.00;99.90
20714;DHT22;10518;50.742;4.226;2023-04-01T03:48:29;10.90;99.90
20714;DHT22;10518;50.742;4.226;2023-04-01T03:50:55;10.90;99.90
20714;DHT22;10518;50.742;4.226;2023-04-01T03:53:21;11.10;99.90
20714;DHT22;10518;50.742;4.226;2023-04-01T03:55:47;11.10;99.90
20714;DHT22;10518;50.742;4.226;2023-04-01T03:58:13;11.10;99.90
20714;DHT22;10518;50.742;4.226;2023-04-01T04:00:38;11.10;99.90
20714;DHT22;10518;50.742;4.226;2023-04-01T04:03:05;11.00;99.90
20714;DHT22;10518;50.742;4.226;2023-04-01T04:05:30;11.10;99.90
20714;DHT22;10518;50.742;4.226;2023-04-01T04:07:56;11.10;99.90
20714;DHT22;10518;50.742;4.226;2023-04-01T04:10:22;11.10;99.90
20714;DHT22;10518;50.742;4.226;2023-04-01T04:12:51;11.10;99.90
20714;DHT22;10518;50.742;4.226;2023-04-01T04:15:17;11.10;99.90
20714;DHT22;10518;50.742;4.226;2023-04-01T04:17:44;11.00;99.90
20714;DHT22;10518;50.742;4.226;2023-04-01T04:20:10;11.00;99.90
20714;DHT22;10518;50.742;4.226;2023-04-01T04:22:36;11.00;99.90
20714;DHT22;10518;50.742;4.226;2023-04-01T04:25:01;11.10;99.90
20714;DHT22;10518;50.742;4.226;2023-04-01T04:27:27;11.00;99.90
20714;DHT22;10518;50.742;4.226;2023-04-01T04:29:52;10.90;99.90
20714;DHT22;10518;50.742;4.226;2023-04-01T04:32:18;11.00;99.90
20714;DHT22;10518;50.742;4.226;2023-04-01T04:34:43;11.10;99.90
20714;DHT22;10518;50.742;4.226;2023-04-01T04:37:09;11.10;99.90
20714;DHT22;10518;50.742;4.226;2023-04-01T04:39:35;11.10;99.90
20714;DHT22;10518;50.742;4.226;2023-04-01T04:42:00;11.10;99.90
20714;DHT22;10518;50.742;4.226;2023-04-01T04:44:26;11.10;99.90
20714;DHT22;10518;50.742;4.226;2023-04-01T04:46:51;11.20;99.90
20714;DHT22;10518;50.742;4.226;2023-04-01T04:49:17;11.20;99.90
20714;DHT22;10518;50.742;4.226;2023-04-01T04:51:43;11.00;99.90
20714;DHT22;10518;50.742;4.226;2023-04-01T04:54:08;11.00;99.90
20714;DHT22;10518;50.742;4.226;2023-04-01T04:56:34;11.10;99.90
20714;DHT22;10518;50.742;4.226;2023-04-01T04:59:01;11.00;99.90
20714;DHT22;10518;50.742;4.226;2023-04-01T05:01:27;10.90;99.90
20714;DHT22;10518;50.742;4.226;2023-04-01T05:03:52;10.90;99.90
20714;DHT22;10518;50.742;4.226;2023-04-01T05:06:19;11.00;99.90
20714;DHT22;10518;50.742;4.226;2023-04-01T05:08:45;11.10;99.90
20714;DHT22;10518;50.742;4.226;2023-04-01T05:11:16;11.10;99.90
20714;DHT22;10518;50.742;4.226;2023-04-01T05:13:43;11.00;99.90
20714;DHT22;10518;50.742;4.226;2023-04-01T05:16:14;11.00;99.90
20714;DHT22;10518;50.742;4.226;2023-04-01T05:18:41;10.90;99.90
20714;DHT22;10518;50.742;4.226;2023-04-01T05:21:08;11.00;99.90
20714;DHT22;10518;50.742;4.226;2023-04-01T05:23:34;10.90;99.90
20714;DHT22;10518;50.742;4.226;2023-04-01T05:26:04;10.80;99.90
20714;DHT22;10518;50.742;4.226;2023-04-01T05:28:30;10.70;99.90
20714;DHT22;10518;50.742;4.226;2023-04-01T05:30:58;10.70;99.90
20714;DHT22;10518;50.742;4.226;2023-04-01T05:33:25;10.70;99.90
20714;DHT22;10518;50.742;4.226;2023-04-01T05:35:50;10.70;99.90
20714;DHT22;10518;50.742;4.226;2023-04-01T05:38:16;10.60;99.90
20714;DHT22;10518;50.742;4.226;2023-04-01T05:40:41;10.70;99.90
20714;DHT22;10518;50.742;4.226;2023-04-01T05:43:07;10.70;99.90
20714;DHT22;10518;50.742;4.226;2023-04-01T05:45:33;10.60;99.90
20714;DHT22;10518;50.742;4.226;2023-04-01T05:47:59;10.70;99.90
20714;DHT22;10518;50.742;4.226;2023-04-01T05:50:25;10.90;99.90
20714;DHT22;10518;50.742;4.226;2023-04-01T05:52:50;10.90;99.90
20714;DHT22;10518;50.742;4.226;2023-04-01T05:55:16;10.80;99.90
20714;DHT22;10518;50.742;4.226;2023-04-01T05:57:42;10.80;99.90
20714;DHT22;10518;50.742;4.226;2023-04-01T06:00:07;10.90;99.90
20714;DHT22;10518;50.742;4.226;2023-04-01T06:02:33;10.90;99.90
20714;DHT22;10518;50.742;4.226;2023-04-01T06:05:21;11.00;99.90
20714;DHT22;10518;50.742;4.226;2023-04-01T06:07:47;11.00;99.90
20714;DHT22;10518;50.742;4.226;2023-04-01T06:10:16;10.80;99.90
20714;DHT22;10518;50.742;4.226;2023-04-01T06:15:13;10.90;99.90
20714;DHT22;10518;50.742;4.226;2023-04-01T06:18:13;10.90;99.90
20714;DHT22;10518;50.742;4.226;2023-04-01T06:21:07;10.90;99.90
20714;DHT22;10518;50.742;4.226;2023-04-01T06:23:41;10.90;99.90
20714;DHT22;10518;50.742;4.226;2023-04-01T06:26:31;10.80;99.90
20714;DHT22;10518;50.742;4.226;2023-04-01T06:34:32;10.90;99.90
20714;DHT22;10518;50.742;4.226;2023-04-01T06:40:19;11.00;99.90
20714;DHT22;10518;50.742;4.226;2023-04-01T06:45:40;10.90;99.90
20714;DHT22;10518;50.742;4.226;2023-04-01T06:56:25;11.20;99.90
20714;DHT22;10518;50.742;4.226;2023-04-01T06:59:20;11.20;99.90
20714;DHT22;10518;50.742;4.226;2023-04-01T07:04:26;11.30;99.90
20714;DHT22;10518;50.742;4.226;2023-04-01T07:07:01;11.30;99.90
20714;DHT22;10518;50.742;4.226;2023-04-01T07:09:38;11.40;99.90
20714;DHT22;10518;50.742;4.226;2023-04-01T07:14:55;11.40;99.90
20714;DHT22;10518;50.742;4.226;2023-04-01T07:17:27;11.50;99.90
20714;DHT22;10518;50.742;4.226;2023-04-01T07:20:03;11.40;99.90
20714;DHT22;10518;50.742;4.226;2023-04-01T07:22:38;11.40;99.90
20714;DHT22;10518;50.742;4.226;2023-04-01T07:25:20;11.50;99.90
20714;DHT22;10518;50.742;4.226;2023-04-01T07:27:46;11.40;99.90
20714;DHT22;10518;50.742;4.226;2023-04-01T07:30:21;11.40;99.90
20714;DHT22;10518;50.742;4.226;2023-04-01T07:35:30;11.60;99.90
20714;DHT22;10518;50.742;4.226;2023-04-01T07:40:56;11.70;99.90
20714;DHT22;10518;50.742;4.226;2023-04-01T07:43:35;11.60;99.90
20714;DHT22;10518;50.742;4.226;2023-04-01T07:51:32;11.50;99.90
20714;DHT22;10518;50.742;4.226;2023-04-01T07:54:12;11.50;99.90
20714;DHT22;10518;50.742;4.226;2023-04-01T07:57:02;11.60;99.90
20714;DHT22;10518;50.742;4.226;2023-04-01T08:00:24;11.50;99.90
20714;DHT22;10518;50.742;4.226;2023-04-01T08:03:08;11.50;99.90
20714;DHT22;10518;50.742;4.226;2023-04-01T08:05:56;11.40;99.90
20714;DHT22;10518;50.742;4.226;2023-04-01T08:14:21;11.50;99.90
20714;DHT22;10518;50.742;4.226;2023-04-01T08:17:04;11.30;99.90
20714;DHT22;10518;50.742;4.226;2023-04-01T08:20:11;11.30;99.90
20714;DHT22;10518;50.742;4.226;2023-04-01T08:22:47;11.30;99.90
20714;DHT22;10518;50.742;4.226;2023-04-01T08:25:20;11.60;99.90
20714;DHT22;10518;50.742;4.226;2023-04-01T08:28:00;11.70;99.90
20714;DHT22;10518;50.742;4.226;2023-04-01T08:35:54;12.10;99.90
20714;DHT22;10518;50.742;4.226;2023-04-01T08:38:42;12.00;99.90
20714;DHT22;10518;50.742;4.226;2023-04-01T08:41:15;12.00;99.90
20714;DHT22;10518;50.742;4.226;2023-04-01T08:44:16;11.90;99.90
20714;DHT22;10518;50.742;4.226;2023-04-01T08:52:36;12.20;99.90
20714;DHT22;10518;50.742;4.226;2023-04-01T09:09:09;12.20;99.90
20714;DHT22;10518;50.742;4.226;2023-04-01T09:27:57;12.50;99.90
20714;DHT22;10518;50.742;4.226;2023-04-01T09:30:46;12.50;99.90
20714;DHT22;10518;50.742;4.226;2023-04-01T09:41:35;12.90;99.90
20714;DHT22;10518;50.742;4.226;2023-04-01T09:52:41;13.10;99.90
20714;DHT22;10518;50.742;4.226;2023-04-01T10:03:49;13.40;99.90
20714;DHT22;10518;50.742;4.226;2023-04-01T10:29:41;13.40;99.90
20714;DHT22;10518;50.742;4.226;2023-04-01T10:35:29;13.50;99.90
20714;DHT22;10518;50.742;4.226;2023-04-01T11:12:36;13.00;99.90
20714;DHT22;10518;50.742;4.226;2023-04-01T11:23:46;13.20;99.90
20714;DHT22;10518;50.742;4.226;2023-04-01T11:31:47;13.80;99.90
20714;DHT22;10518;50.742;4.226;2023-04-01T11:59:09;13.90;99.90
20714;DHT22;10518;50.742;4.226;2023-04-01T12:01:44;13.90;99.90
20714;DHT22;10518;50.742;4.226;2023-04-01T12:10:02;13.80;99.90
20714;DHT22;10518;50.742;4.226;2023-04-01T12:12:46;13.60;99.90
20714;DHT22;10518;50.742;4.226;2023-04-01T12:15:22;13.60;99.90
20714;DHT22;10518;50.742;4.226;2023-04-01T12:17:50;13.60;99.90
20714;DHT22;10518;50.742;4.226;2023-04-01T12:20:39;13.50;99.90
20714;DHT22;10518;50.742;4.226;2023-04-01T12:31:55;12.90;99.90
20714;DHT22;10518;50.742;4.226;2023-04-01T12:53:36;12.50;99.90
20714;DHT22;10518;50.742;4.226;2023-04-01T12:55:59;12.70;99.90
20714;DHT22;10518;50.742;4.226;2023-04-01T13:16:46;12.60;99.90
20714;DHT22;10518;50.742;4.226;2023-04-01T13:27:54;12.70;99.90
20714;DHT22;10518;50.742;4.226;2023-04-01T13:30:49;12.50;99.90
20714;DHT22;10518;50.742;4.226;2023-04-01T13:33:30;12.50;99.90
20714;DHT22;10518;50.742;4.226;2023-04-01T13:36:05;12.40;99.90
20714;DHT22;10518;50.742;4.226;2023-04-01T13:44:34;12.40;99.90
20714;DHT22;10518;50.742;4.226;2023-04-01T13:55:26;12.60;99.90
20714;DHT22;10518;50.742;4.226;2023-04-01T13:58:17;12.30;99.90
20714;DHT22;10518;50.742;4.226;2023-04-01T14:06:17;12.40;99.90
20714;DHT22;10518;50.742;4.226;2023-04-01T14:11:44;12.30;99.90
20714;DHT22;10518;50.742;4.226;2023-04-01T14:20:24;12.10;99.90
20714;DHT22;10518;50.742;4.226;2023-04-01T14:26:03;12.30;99.90
20714;DHT22;10518;50.742;4.226;2023-04-01T14:28:48;12.10;99.90
20714;DHT22;10518;50.742;4.226;2023-04-01T14:31:21;12.10;99.90
20714;DHT22;10518;50.742;4.226;2023-04-01T14:34:03;12.00;99.90
20714;DHT22;10518;50.742;4.226;2023-04-01T14:39:43;11.70;99.90
20714;DHT22;10518;50.742;4.226;2023-04-01T14:47:51;11.70;99.90
20714;DHT22;10518;50.742;4.226;2023-04-01T14:51:02;11.90;99.90
20714;DHT22;10518;50.742;4.226;2023-04-01T14:58:11;11.90;99.90
20714;DHT22;10518;50.742;4.226;2023-04-01T15:03:22;11.70;99.90
20714;DHT22;10518;50.742;4.226;2023-04-01T15:06:14;11.70;99.90
20714;DHT22;10518;50.742;4.226;2023-04-01T15:25:28;11.50;99.90
20714;DHT22;10518;50.742;4.226;2023-04-01T15:39:01;11.80;99.90
20714;DHT22;10518;50.742;4.226;2023-04-01T15:44:04;12.20;99.90
20714;DHT22;10518;50.742;4.226;2023-04-01T15:46:49;12.20;99.90
20714;DHT22;10518;50.742;4.226;2023-04-01T15:49:38;12.10;99.90
20714;DHT22;10518;50.742;4.226;2023-04-01T15:58:46;12.20;99.90
20714;DHT22;10518;50.742;4.226;2023-04-01T16:00:57;12.10;99.90
20714;DHT22;10518;50.742;4.226;2023-04-01T16:07:02;12.00;99.90
20714;DHT22;10518;50.742;4.226;2023-04-01T16:09:53;12.00;99.90
20714;DHT22;10518;50.742;4.226;2023-04-01T16:21:03;11.80;99.90
20714;DHT22;10518;50.742;4.226;2023-04-01T16:23:46;11.70;99.90
20714;DHT22;10518;50.742;4.226;2023-04-01T16:31:54;11.40;99.90
20714;DHT22;10518;50.742;4.226;2023-04-01T16:34:29;11.40;99.90
20714;DHT22;10518;50.742;4.226;2023-04-01T16:37:11;11.40;99.90
20714;DHT22;10518;50.742;4.226;2023-04-01T16:40:13;11.40;99.90
20714;DHT22;10518;50.742;4.226;2023-04-01T16:42:51;11.30;99.90
20714;DHT22;10518;50.742;4.226;2023-04-01T16:45:35;11.30;99.90
20714;DHT22;10518;50.742;4.226;2023-04-01T16:48:17;11.40;99.90
20714;DHT22;10518;50.742;4.226;2023-04-01T16:51:15;11.50;99.90
20714;DHT22;10518;50.742;4.226;2023-04-01T17:01:52;11.30;99.90
20714;DHT22;10518;50.742;4.226;2023-04-01T17:04:36;11.30;99.90
20714;DHT22;10518;50.742;4.226;2023-04-01T17:13:02;11.30;99.90
20714;DHT22;10518;50.742;4.226;2023-04-01T17:18:07;11.30;99.90
20714;DHT22;10518;50.742;4.226;2023-04-01T17:23:35;11.20;99.90
20714;DHT22;10518;50.742;4.226;2023-04-01T17:29:29;11.40;99.90
20714;DHT22;10518;50.742;4.226;2023-04-01T17:32:20;11.30;99.90
20714;DHT22;10518;50.742;4.226;2023-04-01T17:35:05;11.30;99.90
20714;DHT22;10518;50.742;4.226;2023-04-01T17:37:54;11.20;99.90
20714;DHT22;10518;50.742;4.226;2023-04-01T17:43:19;11.10;99.90
20714;DHT22;10518;50.742;4.226;2023-04-01T17:45:57;11.00;99.90
20714;DHT22;10518;50.742;4.226;2023-04-01T17:48:42;11.00;99.90
20714;DHT22;10518;50.742;4.226;2023-04-01T17:51:43;11.10;99.90
20714;DHT22;10518;50.742;4.226;2023-04-01T17:56:59;10.90;99.90
20714;DHT22;10518;50.742;4.226;2023-04-01T17:59:35;11.00;99.90
20714;DHT22;10518;50.742;4.226;2023-04-01T18:05:33;11.00;99.90
20714;DHT22;10518;50.742;4.226;2023-04-01T18:11:08;11.00;99.90
20714;DHT22;10518;50.742;4.226;2023-04-01T18:17:12;10.60;99.90
20714;DHT22;10518;50.742;4.226;2023-04-01T18:20:24;10.60;99.90
20714;DHT22;10518;50.742;4.226;2023-04-01T18:22:59;10.60;99.90
20714;DHT22;10518;50.742;4.226;2023-04-01T18:25:43;10.70;99.90
20714;DHT22;10518;50.742;4.226;2023-04-01T18:44:50;10.80;99.90
20714;DHT22;10518;50.742;4.226;2023-04-01T18:52:45;10.90;99.90
20714;DHT22;10518;50.742;4.226;2023-04-01T18:57:55;10.80;99.90
20714;DHT22;10518;50.742;4.226;2023-04-01T19:00:35;10.80;99.90
20714;DHT22;10518;50.742;4.226;2023-04-01T19:03:32;10.70;99.90
20714;DHT22;10518;50.742;4.226;2023-04-01T19:06:02;10.60;99.90
20714;DHT22;10518;50.742;4.226;2023-04-01T19:08:37;10.60;99.90
20714;DHT22;10518;50.742;4.226;2023-04-01T19:13:40;10.50;99.90
20714;DHT22;10518;50.742;4.226;2023-04-01T19:21:44;10.40;99.90
20714;DHT22;10518;50.742;4.226;2023-04-01T19:38:53;10.20;99.90
20714;DHT22;10518;50.742;4.226;2023-04-01T19:41:39;10.10;99.90
20714;DHT22;10518;50.742;4.226;2023-04-01T19:46:51;10.10;99.90
20714;DHT22;10518;50.742;4.226;2023-04-01T19:52:17;10.10;99.90
20714;DHT22;10518;50.742;4.226;2023-04-01T19:55:03;10.30;99.90
20714;DHT22;10518;50.742;4.226;2023-04-01T19:58:02;10.30;99.90
20714;DHT22;10518;50.742;4.226;2023-04-01T20:00:51;10.30;99.90
20714;DHT22;10518;50.742;4.226;2023-04-01T20:09:26;10.20;99.90
20714;DHT22;10518;50.742;4.226;2023-04-01T20:12:11;10.30;99.90
20714;DHT22;10518;50.742;4.226;2023-04-01T20:14:44;10.10;99.90
20714;DHT22;10518;50.742;4.226;2023-04-01T20:17:43;10.20;99.90
20714;DHT22;10518;50.742;4.226;2023-04-01T20:25:32;10.10;99.90
20714;DHT22;10518;50.742;4.226;2023-04-01T20:28:04;10.10;99.90
20714;DHT22;10518;50.742;4.226;2023-04-01T20:35:57;9.90;99.90
20714;DHT22;10518;50.742;4.226;2023-04-01T20:52:56;10.30;99.90
20714;DHT22;10518;50.742;4.226;2023-04-01T20:58:46;10.30;99.90
20714;DHT22;10518;50.742;4.226;2023-04-01T21:04:25;10.20;99.90
20714;DHT22;10518;50.742;4.226;2023-04-01T21:21:15;10.20;99.90
20714;DHT22;10518;50.742;4.226;2023-04-01T21:26:56;10.20;99.90
20714;DHT22;10518;50.742;4.226;2023-04-01T21:35:30;10.20;99.90
20714;DHT22;10518;50.742;4.226;2023-04-01T21:49:45;10.20;99.90
20714;DHT22;10518;50.742;4.226;2023-04-01T21:52:28;10.10;99.90
20714;DHT22;10518;50.742;4.226;2023-04-01T22:03:39;10.20;99.90
20714;DHT22;10518;50.742;4.226;2023-04-01T22:06:25;10.30;99.90
20714;DHT22;10518;50.742;4.226;2023-04-01T22:09:01;10.20;99.90
20714;DHT22;10518;50.742;4.226;2023-04-01T22:11:38;10.10;99.90
20714;DHT22;10518;50.742;4.226;2023-04-01T22:16:54;10.20;99.90
20714;DHT22;10518;50.742;4.226;2023-04-01T22:19:46;10.30;99.90
20714;DHT22;10518;50.742;4.226;2023-04-01T22:22:34;10.30;99.90
20714;DHT22;10518;50.742;4.226;2023-04-01T22:25:25;10.20;99.90
20714;DHT22;10518;50.742;4.226;2023-04-01T22:31:01;10.00;99.90
20714;DHT22;10518;50.742;4.226;2023-04-01T22:33:37;10.10;99.90
20714;DHT22;10518;50.742;4.226;2023-04-01T22:36:10;10.10;99.90
20714;DHT22;10518;50.742;4.226;2023-04-01T22:39:21;10.10;99.90
20714;DHT22;10518;50.742;4.226;2023-04-01T22:52:43;10.20;99.90
20714;DHT22;10518;50.742;4.226;2023-04-01T22:55:17;10.30;99.90
20714;DHT22;10518;50.742;4.226;2023-04-01T22:58:03;10.40;99.90
20714;DHT22;10518;50.742;4.226;2023-04-01T23:00:34;10.40;99.90
20714;DHT22;10518;50.742;4.226;2023-04-01T23:05:27;10.40;99.90
20714;DHT22;10518;50.742;4.226;2023-04-01T23:10:44;10.30;99.90
20714;DHT22;10518;50.742;4.226;2023-04-01T23:13:20;10.10;99.90
20714;DHT22;10518;50.742;4.226;2023-04-01T23:15:48;10.30;99.90
20714;DHT22;10518;50.742;4.226;2023-04-01T23:18:27;10.40;99.90
20714;DHT22;10518;50.742;4.226;2023-04-01T23:21:06;10.40;99.90
20714;DHT22;10518;50.742;4.226;2023-04-01T23:29:00;10.40;99.90
20714;DHT22;10518;50.742;4.226;2023-04-01T23:34:22;10.00;99.90
20714;DHT22;10518;50.742;4.226;2023-04-01T23:37:03;10.00;99.90
20714;DHT22;10518;50.742;4.226;2023-04-01T23:39:33;9.70;99.90
20714;DHT22;10518;50.742;4.226;2023-04-01T23:44:43;9.90;99.90
20714;DHT22;10518;50.742;4.226;2023-04-01T23:47:16;9.80;99.90
20714;DHT22;10518;50.742;4.226;2023-04-01T23:49:46;9.80;99.90
20714;DHT22;10518;50.742;4.226;2023-04-01T23:55:01;9.90;99.90
20714;DHT22;10518;50.742;4.226;2023-04-01T23:57:34;9.80;99.90
